logo tempoitalia

Diretta Meteo Salon, Francialunedì 31 agosto ore 07:00

Mappa
Sereno 17 °C Poco Nuvoloso 24 Ore: T.min 17 T.max 33
Ponente Nord Km/h 0 Punto di rugiada: 15 °C Umidità: 88% Visibilità: 10 Km
Il sole sorge alle: 07:02 Il sole tramonta alle: 20:17
31 Agosto 2026 07:00 tempo osservato: Poco Nuvoloso Poco Nuvoloso 17 88 1016 vento: Nord N 0
31 Agosto 2026 06:30 tempo osservato: Sereno Sereno 17 93 1017 vento: Nord N 1.8
31 Agosto 2026 06:00 tempo osservato: Poco Nuvoloso Poco Nuvoloso 17 93 1016 vento: Nord N 0
31 Agosto 2026 05:30 tempo osservato: Molto Nuvoloso Molto Nuvoloso 17 88 1016 vento: Nord N 1.8
31 Agosto 2026 05:00 tempo osservato: Poco Nuvoloso Poco Nuvoloso 18 88 1016 vento: Nord N 1.8
31 Agosto 2026 04:30 tempo osservato: Sereno Sereno 18 88 1016 vento: Nord N 1.8
31 Agosto 2026 04:00 tempo osservato: Sereno Sereno 18 88 1016 vento: Nord N 5.5
31 Agosto 2026 03:30 tempo osservato: Sereno Sereno 18 88 1016 vento: Nord N 0
31 Agosto 2026 03:00 tempo osservato: Sereno Sereno 18 93 1016 vento: Nord N 0
31 Agosto 2026 02:30 tempo osservato: Sereno Sereno 18 93 1016 vento: Nord N 5.5
31 Agosto 2026 02:00 tempo osservato: Sereno Sereno 19 88 1017 vento: Nord N 0
31 Agosto 2026 01:30 tempo osservato: Sereno Sereno 19 88 1017 vento: Nord N 0
31 Agosto 2026 01:00 tempo osservato: Sereno Sereno 19 88 1017 vento: Nord N 3.7
31 Agosto 2026 00:30 tempo osservato: Sereno Sereno 20 82 1017 vento: Nord N 5.5
31 Agosto 2026 00:00 tempo osservato: Sereno Sereno 20 88 1016 vento: Nord N 1.8
30 Agosto 2026 23:30 tempo osservato: Sereno Sereno 20 88 1016 vento: Nord NE 9.3
30 Agosto 2026 23:00 tempo osservato: Sereno Sereno 20 88 1016 vento: Nord N 0
30 Agosto 2026 22:30 tempo osservato: Sereno Sereno 21 82 1016 vento: Nord N 0
30 Agosto 2026 22:00 tempo osservato: Sereno Sereno 21 82 1016 vento: Nord N 1.8
30 Agosto 2026 21:30 tempo osservato: Sereno Sereno 23 73 1016 vento: Nord N 1.8
30 Agosto 2026 21:00 tempo osservato: Sereno Sereno 24 73 1015 vento: Nord N 5.5
30 Agosto 2026 20:30 tempo osservato: Sereno Sereno 25 69 1015 vento: Nord N 5.5
30 Agosto 2026 20:00 tempo osservato: Sereno Sereno 27 57 1014 vento: Nord S/SO 9.3
30 Agosto 2026 19:30 tempo osservato: Sereno Sereno 29 39 1014 vento: Nord O/SO 11.1
30 Agosto 2026 19:00 tempo osservato: Sereno Sereno 30 37 1014 vento: Nord SO 16.7
30 Agosto 2026 18:30 tempo osservato: Sereno Sereno 31 33 1014 vento: Nord SO 14.8
30 Agosto 2026 18:00 tempo osservato: Sereno Sereno 32 33 1014 vento: Nord O/SO 14.8
30 Agosto 2026 17:30 tempo osservato: Sereno Sereno 32 35 1014 vento: Nord O/SO 11.1
30 Agosto 2026 17:00 tempo osservato: Sereno Sereno 32 38 1014 vento: Nord O/SO 14.8
30 Agosto 2026 16:30 tempo osservato: Sereno Sereno 33 36 1014 vento: Nord O/SO 11.1
30 Agosto 2026 16:00 tempo osservato: Sereno Sereno 32 38 1014 vento: Nord O/SO 11.1
30 Agosto 2026 15:30 tempo osservato: Sereno Sereno 32 38 1015 vento: Nord N 11.1
30 Agosto 2026 15:00 tempo osservato: Sereno Sereno 32 38 1015 vento: Nord O/NO 11.1
30 Agosto 2026 14:30 tempo osservato: Sereno Sereno 31 37 1015 vento: Nord O 11.1
30 Agosto 2026 14:00 tempo osservato: Sereno Sereno 31 37 1015 vento: Nord O/NO 9.3
30 Agosto 2026 13:30 tempo osservato: Sereno Sereno 31 37 1015 vento: Nord NO 11.1
30 Agosto 2026 13:00 tempo osservato: Sereno Sereno 30 37 1015 vento: Nord N/NO 11.1
30 Agosto 2026 12:30 tempo osservato: Sereno Sereno 29 42 1016 vento: Nord N 5.5
30 Agosto 2026 12:00 tempo osservato: Sereno Sereno 28 45 1016 vento: Nord O/NO 7.4
30 Agosto 2026 11:30 tempo osservato: Sereno Sereno 27 50 1016 vento: Nord NO 7.4
30 Agosto 2026 11:00 tempo osservato: Sereno Sereno 26 50 1016 vento: Nord N 5.5
30 Agosto 2026 10:30 tempo osservato: Sereno Sereno 25 53 1016 vento: Nord N 5.5
30 Agosto 2026 10:00 tempo osservato: Sereno Sereno 24 57 1016 vento: Nord N 5.5
30 Agosto 2026 09:30 tempo osservato: Sereno Sereno 23 64 1016 vento: Nord N 1.8
30 Agosto 2026 09:00 tempo osservato: Sereno Sereno 21 73 1016 vento: Nord N 5.5
30 Agosto 2026 08:30 tempo osservato: Sereno Sereno 19 82 1016 vento: Nord N 1.8
30 Agosto 2026 08:00 tempo osservato: Sereno Sereno 17 93 1016 vento: Nord N 0